Darstellungsparameter: Aktuell verwendete Einstellungen:
Skalierung der Graphiken ... ?
xyx+y,   Skalierungsfaktor:      Skalierung: Modus: x, Faktor: 1
Darstellungszeitraum ... ?
Vom - - bis: - -   Zeitraum: 03.12.2021 - 03.12.2021
Min/Max/Avg-Anzeige ... ?
Zeige MMA aktuell
Zeige MMA Monat
Zeige MMA alles
Zeige --A aktuell
Zeige --A Monat
Zeige --A alles
Keine MMA-Anzeige
MMA:
Minimum Maximum Average (ber die Originaldaten)
MMA-Basis: 03.12.2021 - 03.12.2021
Quicknavigation für Darstellung... ?
Tage:      1T, 2T, 3T, 5T -1T -2T -3T -5T +1T +2T +3T +5T
Wochen: 1W, 2W, 3W -1W -2W -3W +1W +2W +3W
Monate: 1M, 3M, 6M -1M -3M -6M +1M +3M +6M
Jahre:    1J, 3J, 5J, 10J -1J -3J -5J -10J +1J +3J +5J +10J
Nutze für die Darstellung ... ?
Originaldaten oder Mittelwerte auf ...
Stundenbasis Tagesbasis Wochenbasis
Monatsbasis Jahresbasis      Datenbasis: Original-Daten
Darstellen als:
Statistik (Auto) Statistik J:M      Darstellung:

Der gewünschte Datumsbereich war nicht gültig/verfügbar und wurde korrigiert....
Das angegebene Enddatum (15.08.2022 23:59:59) liegt in der Zukunft.
Das angegebene Startdatum (16.02.2022 00:00:00) liegt in der Zukunft.


Zur Graphik,    zurück zur Übersicht aller Sensoren.
 
Tabellarische Datenbersicht: ?
 
Sensor: Nr:Datum:Temp:Feuchte:Taupunkt:
Aussen-T/F 1 03-12-2021 01:00:00 1.4 C 92 % 0.25 C
2 03-12-2021 01:05:00 1.4 C 92 % 0.25 C
3 03-12-2021 01:10:00 1.3 C 92 % 0.15 C
4 03-12-2021 01:15:00 1.3 C 92 % 0.15 C
5 03-12-2021 01:20:00 1.2 C 92 % 0.05 C
6 03-12-2021 01:25:00 1.2 C 93 % 0.2 C
7 03-12-2021 01:30:00 1.3 C 93 % 0.3 C
8 03-12-2021 01:35:00 1.3 C 93 % 0.3 C
9 03-12-2021 01:40:00 1.3 C 93 % 0.3 C
10 03-12-2021 01:45:00 1.4 C 93 % 0.4 C
11 03-12-2021 01:50:00 1.4 C 93 % 0.4 C
12 03-12-2021 01:55:00 1.4 C 93 % 0.4 C
13 03-12-2021 02:00:00 1.3 C 93 % 0.3 C
14 03-12-2021 02:05:00 1.3 C 93 % 0.3 C
15 03-12-2021 02:10:00 1.3 C 93 % 0.3 C
16 03-12-2021 02:15:00 1.3 C 93 % 0.3 C
17 03-12-2021 02:20:00 1.2 C 93 % 0.2 C
18 03-12-2021 02:25:00 1.2 C 93 % 0.2 C
19 03-12-2021 02:30:00 1.2 C 93 % 0.2 C
20 03-12-2021 02:35:00 1.2 C 93 % 0.2 C
21 03-12-2021 02:40:00 1.2 C 93 % 0.2 C
22 03-12-2021 02:45:00 1.2 C 94 % 0.34 C
23 03-12-2021 02:50:00 1.3 C 94 % 0.44 C
24 03-12-2021 02:55:00 1.3 C 93 % 0.3 C
25 03-12-2021 03:00:00 1.3 C 93 % 0.3 C
Sensor: Nr:Datum:Temp:Feuchte:Taupunkt:
Aussen-T/F 26 03-12-2021 03:05:00 1.3 C 92 % 0.15 C
27 03-12-2021 03:10:00 1.3 C 92 % 0.15 C
28 03-12-2021 03:15:00 1.2 C 91 % -0.1 C
29 03-12-2021 03:20:00 1.1 C 92 % -0.05 C
30 03-12-2021 03:25:00 0.9 C 91 % -0.4 C
31 03-12-2021 03:30:00 0.8 C 91 % -0.5 C
32 03-12-2021 03:35:00 0.7 C 91 % -0.6 C
33 03-12-2021 03:40:00 0.6 C 91 % -0.7 C
34 03-12-2021 03:45:00 0.5 C 92 % -0.65 C
35 03-12-2021 03:50:00 0.4 C 92 % -0.74 C
36 03-12-2021 03:55:00 0.4 C 92 % -0.74 C
37 03-12-2021 04:00:00 0.3 C 92 % -0.84 C
38 03-12-2021 04:05:00 0.2 C 92 % -0.94 C
39 03-12-2021 04:10:00 0.2 C 92 % -0.94 C
40 03-12-2021 04:15:00 0.2 C 93 % -0.79 C
41 03-12-2021 04:20:00 0.2 C 93 % -0.79 C
42 03-12-2021 04:25:00 0.2 C 93 % -0.79 C
43 03-12-2021 04:30:00 0.1 C 93 % -0.89 C
44 03-12-2021 04:35:00 0.1 C 93 % -0.89 C
45 03-12-2021 04:40:00 0 C 93 % -0.99 C
46 03-12-2021 04:45:00 -0.1 C 93 % -1.09 C
47 03-12-2021 04:50:00 -0.1 C 93 % -1.09 C
48 03-12-2021 04:55:00 -0.1 C 93 % -1.09 C
49 03-12-2021 05:00:00 -0.2 C 93 % -1.19 C
50 03-12-2021 05:05:00 -0.2 C 93 % -1.19 C
Sensor: Nr:Datum:Temp:Feuchte:Taupunkt:
Aussen-T/F 51 03-12-2021 05:10:00 -0.1 C 94 % -0.95 C
52 03-12-2021 05:15:00 0 C 94 % -0.85 C
53 03-12-2021 05:20:00 0.1 C 94 % -0.75 C
54 03-12-2021 05:25:00 0.1 C 94 % -0.75 C
55 03-12-2021 05:30:00 0.1 C 94 % -0.75 C
56 03-12-2021 05:35:00 0.2 C 94 % -0.65 C
57 03-12-2021 05:40:00 0.3 C 94 % -0.55 C
58 03-12-2021 05:45:00 0.3 C 94 % -0.55 C
59 03-12-2021 05:50:00 0.4 C 94 % -0.45 C
60 03-12-2021 05:55:00 0.4 C 94 % -0.45 C
61 03-12-2021 06:00:00 0.4 C 94 % -0.45 C
62 03-12-2021 06:05:00 0.4 C 94 % -0.45 C
63 03-12-2021 06:10:00 0.3 C 94 % -0.55 C
64 03-12-2021 06:15:00 0.3 C 94 % -0.55 C
65 03-12-2021 06:20:00 0.3 C 94 % -0.55 C
66 03-12-2021 06:25:00 0.2 C 93 % -0.79 C
67 03-12-2021 06:30:00 0.1 C 93 % -0.89 C
68 03-12-2021 06:35:00 0.1 C 94 % -0.75 C
69 03-12-2021 06:40:00 0.1 C 94 % -0.75 C
70 03-12-2021 06:45:00 0.1 C 94 % -0.75 C
71 03-12-2021 06:50:00 0.1 C 94 % -0.75 C
72 03-12-2021 06:55:00 0.1 C 94 % -0.75 C
73 03-12-2021 07:00:00 0 C 94 % -0.85 C
74 03-12-2021 07:05:00 0 C 94 % -0.85 C
75 03-12-2021 07:10:00 0.1 C 94 % -0.75 C
Sensor: Nr:Datum:Temp:Feuchte:Taupunkt:
Aussen-T/F 76 03-12-2021 07:15:00 0.1 C 94 % -0.75 C
77 03-12-2021 07:20:00 0.3 C 95 % -0.4 C
78 03-12-2021 07:25:00 0.4 C 95 % -0.31 C
79 03-12-2021 07:30:00 0.6 C 95 % -0.11 C
80 03-12-2021 07:35:00 0.7 C 95 % -0.01 C
81 03-12-2021 07:40:00 0.8 C 95 % 0.09 C
82 03-12-2021 07:45:00 0.9 C 95 % 0.19 C
83 03-12-2021 07:50:00 1 C 95 % 0.29 C
84 03-12-2021 07:55:00 1.2 C 95 % 0.49 C
85 03-12-2021 08:00:00 1.2 C 95 % 0.49 C
86 03-12-2021 08:05:00 1.3 C 95 % 0.59 C
87 03-12-2021 08:10:00 1.3 C 95 % 0.59 C
88 03-12-2021 08:15:00 1.3 C 95 % 0.59 C
89 03-12-2021 08:20:00 1.4 C 94 % 0.54 C
90 03-12-2021 08:25:00 1.5 C 94 % 0.64 C
91 03-12-2021 08:30:00 1.6 C 94 % 0.74 C
92 03-12-2021 08:35:00 1.7 C 94 % 0.84 C
93 03-12-2021 08:40:00 1.8 C 93 % 0.79 C
94 03-12-2021 08:45:00 1.9 C 93 % 0.89 C
95 03-12-2021 08:50:00 1.9 C 93 % 0.89 C
96 03-12-2021 08:55:00 2 C 92 % 0.84 C
97 03-12-2021 09:00:00 2.1 C 92 % 0.94 C
98 03-12-2021 09:05:00 2.1 C 92 % 0.94 C
99 03-12-2021 09:10:00 2.1 C 92 % 0.94 C
100 03-12-2021 09:15:00 2.1 C 92 % 0.94 C
Sensor: Nr:Datum:Temp:Feuchte:Taupunkt:
Aussen-T/F 101 03-12-2021 09:20:00 2.2 C 91 % 0.89 C
102 03-12-2021 09:25:00 2.3 C 91 % 0.99 C
103 03-12-2021 09:30:00 2.3 C 90 % 0.83 C
104 03-12-2021 09:35:00 2.3 C 90 % 0.83 C
105 03-12-2021 09:40:00 2.4 C 90 % 0.93 C
106 03-12-2021 09:45:00 2.5 C 89 % 0.88 C
107 03-12-2021 09:50:00 2.6 C 88 % 0.82 C
108 03-12-2021 09:55:00 2.7 C 88 % 0.92 C
109 03-12-2021 10:00:00 2.8 C 88 % 1.02 C
110 03-12-2021 10:05:00 2.9 C 87 % 0.96 C
111 03-12-2021 10:10:00 2.9 C 87 % 0.96 C
112 03-12-2021 10:15:00 3 C 87 % 1.05 C
113 03-12-2021 10:20:00 3.1 C 87 % 1.15 C
114 03-12-2021 10:25:00 3.1 C 86 % 0.99 C
115 03-12-2021 10:30:00 3.1 C 86 % 0.99 C
116 03-12-2021 10:35:00 3.1 C 87 % 1.15 C
117 03-12-2021 10:40:00 3.1 C 86 % 0.99 C
118 03-12-2021 10:45:00 3.2 C 86 % 1.09 C
119 03-12-2021 10:50:00 3.2 C 86 % 1.09 C
120 03-12-2021 10:55:00 3.3 C 85 % 1.03 C
121 03-12-2021 11:00:00 3.3 C 85 % 1.03 C
122 03-12-2021 11:05:00 3.4 C 85 % 1.12 C
123 03-12-2021 11:10:00 3.4 C 85 % 1.12 C
124 03-12-2021 11:15:00 3.5 C 85 % 1.22 C
125 03-12-2021 11:20:00 3.6 C 84 % 1.16 C
Sensor: Nr:Datum:Temp:Feuchte:Taupunkt:
Aussen-T/F 126 03-12-2021 11:25:00 3.6 C 84 % 1.16 C
127 03-12-2021 11:30:00 3.7 C 84 % 1.25 C
128 03-12-2021 11:35:00 3.7 C 83 % 1.09 C
129 03-12-2021 11:40:00 3.7 C 83 % 1.09 C
130 03-12-2021 11:45:00 3.7 C 83 % 1.09 C
131 03-12-2021 11:50:00 3.7 C 83 % 1.09 C
132 03-12-2021 11:55:00 3.7 C 83 % 1.09 C
133 03-12-2021 12:00:00 3.7 C 83 % 1.09 C
134 03-12-2021 12:05:00 3.8 C 83 % 1.19 C
135 03-12-2021 12:10:00 3.8 C 83 % 1.19 C
136 03-12-2021 12:15:00 3.8 C 83 % 1.19 C
137 03-12-2021 12:20:00 3.8 C 83 % 1.19 C
138 03-12-2021 12:25:00 3.8 C 83 % 1.19 C
139 03-12-2021 12:30:00 3.8 C 83 % 1.19 C
140 03-12-2021 12:35:00 3.8 C 83 % 1.19 C
141 03-12-2021 12:40:00 3.8 C 83 % 1.19 C
142 03-12-2021 12:45:00 3.8 C 83 % 1.19 C
143 03-12-2021 12:50:00 3.8 C 83 % 1.19 C
144 03-12-2021 12:55:00 3.8 C 83 % 1.19 C
145 03-12-2021 13:00:00 3.8 C 83 % 1.19 C
146 03-12-2021 13:05:00 3.8 C 83 % 1.19 C
147 03-12-2021 13:10:00 3.9 C 83 % 1.28 C
148 03-12-2021 13:15:00 3.8 C 83 % 1.19 C
149 03-12-2021 13:20:00 3.8 C 83 % 1.19 C
150 03-12-2021 13:25:00 3.8 C 83 % 1.19 C
Sensor: Nr:Datum:Temp:Feuchte:Taupunkt:
Aussen-T/F 151 03-12-2021 13:30:00 3.9 C 83 % 1.28 C
152 03-12-2021 13:35:00 3.9 C 83 % 1.28 C
153 03-12-2021 13:40:00 3.9 C 83 % 1.28 C
154 03-12-2021 13:45:00 3.9 C 82 % 1.12 C
155 03-12-2021 13:50:00 3.9 C 82 % 1.12 C
156 03-12-2021 13:55:00 4 C 82 % 1.21 C
157 03-12-2021 14:00:00 4 C 82 % 1.21 C
158 03-12-2021 14:05:00 4.1 C 83 % 1.48 C
159 03-12-2021 14:10:00 4.1 C 82 % 1.31 C
160 03-12-2021 14:15:00 4 C 82 % 1.21 C
161 03-12-2021 14:20:00 4 C 82 % 1.21 C
162 03-12-2021 14:25:00 4 C 82 % 1.21 C
163 03-12-2021 14:30:00 4 C 82 % 1.21 C
164 03-12-2021 14:35:00 3.9 C 82 % 1.12 C
165 03-12-2021 14:40:00 3.9 C 82 % 1.12 C
166 03-12-2021 14:45:00 3.9 C 83 % 1.28 C
167 03-12-2021 14:50:00 3.9 C 83 % 1.28 C
168 03-12-2021 14:55:00 3.9 C 83 % 1.28 C
169 03-12-2021 15:00:00 3.9 C 83 % 1.28 C
170 03-12-2021 15:05:00 3.9 C 83 % 1.28 C
171 03-12-2021 15:10:00 3.9 C 83 % 1.28 C
172 03-12-2021 15:15:00 3.8 C 82 % 1.02 C
173 03-12-2021 15:20:00 3.8 C 83 % 1.19 C
174 03-12-2021 15:25:00 3.8 C 83 % 1.19 C
175 03-12-2021 15:30:00 3.8 C 83 % 1.19 C
Sensor: Nr:Datum:Temp:Feuchte:Taupunkt:
Aussen-T/F 176 03-12-2021 15:35:00 3.8 C 83 % 1.19 C
177 03-12-2021 15:40:00 3.8 C 83 % 1.19 C
178 03-12-2021 15:45:00 3.8 C 83 % 1.19 C
179 03-12-2021 15:50:00 3.8 C 83 % 1.19 C
180 03-12-2021 15:55:00 3.8 C 83 % 1.19 C
181 03-12-2021 16:00:00 3.8 C 83 % 1.19 C
182 03-12-2021 16:05:00 3.8 C 83 % 1.19 C
183 03-12-2021 16:10:00 3.8 C 83 % 1.19 C
184 03-12-2021 16:15:00 3.8 C 83 % 1.19 C
185 03-12-2021 16:20:00 3.8 C 83 % 1.19 C
186 03-12-2021 16:25:00 3.8 C 83 % 1.19 C
187 03-12-2021 16:30:00 3.8 C 83 % 1.19 C
188 03-12-2021 16:35:00 3.8 C 83 % 1.19 C
189 03-12-2021 16:40:00 3.8 C 83 % 1.19 C
190 03-12-2021 16:45:00 3.8 C 83 % 1.19 C
191 03-12-2021 16:50:00 3.8 C 83 % 1.19 C
192 03-12-2021 16:55:00 3.8 C 83 % 1.19 C

Legende:
   Min
   Max


Maximal/Minimal-Werte vom 03.12.2021 - 03.12.2021

Sensor Min Max Avg
Temp
(Aussen-T/F)
-0.2 °C
03-12-2021  05:00:00
4.1 °C
03-12-2021  14:05:00
2.14 °C
Feuchte
(Aussen-T/F)
82 %
03-12-2021  13:45:00
95 %
03-12-2021  07:20:00
88.83 %
Taupunkt
(Aussen-T/F)
-1.19 C
03-12-2021  05:00:00
1.48 C
03-12-2021  14:05:00
0.46 C

Die Daten stammen von einer Davis Vantage Pro 2 Wetter-Station und werden unter Linux mit der Software wview2wettercgi und aufbereitet. Alle Angaben erfolgen ohne Gewähr für ihre Vollständigkeit oder Richtigkeit.
Kontakt: Rainer Krienke krienke@uni-koblenz.de . Meine Webseiten an der Uni Koblenz oder privat.
Version: $Revision: 0.78 $